Phillipsport, New York
Current Conditions -  °F | °C
As of 6:54 PM on Saturday 25 Oct 2014 (Local Time) from KMGJ Reporting Station
Overcast Overcast  
Wind Chill: 59°   Ceiling: 8000
Heat Index: 59°   Visibility: 10mi
Dew Point: 43°   Wind: 3mph
Humidity: 55%   Direction: 200°SSW
Pressure: 29.6"   Gusts: NA
Location:  41.65°N, 74.44°W
Report Text: KMGJ 252254Z AUTO 20003KT 10SM OVC080 15/06 A2960 RMK AO2 SLP023 T01500061 TSNO $
Loading
Personal Weather Stations






























Interactive Weather Map
Tropical Storm Tracking
New forecast layout! Learn more

10-Day Weather Forecast

Advertisements
Track Severe Weather on mobile